createdAt,value
2018-04-28T00:00:33.136Z,977.33
2018-04-28T00:01:43.140Z,977.33
2018-04-28T00:02:53.148Z,977.35
2018-04-28T00:04:02.879Z,977.31
2018-04-28T00:05:12.091Z,977.34
2018-04-28T00:06:22.102Z,977.35
2018-04-28T00:07:31.842Z,977.29
2018-04-28T00:08:41.581Z,977.3
2018-04-28T00:09:51.584Z,977.33
2018-04-28T00:11:01.327Z,977.3
2018-04-28T00:12:10.806Z,977.32
2018-04-28T00:13:20.814Z,977.3
2018-04-28T00:14:30.560Z,977.31
2018-04-28T00:15:40.297Z,977.34
2018-04-28T00:16:50.039Z,977.37
2018-04-28T00:18:00.086Z,977.35
2018-04-28T00:19:09.556Z,977.36
2018-04-28T00:20:19.564Z,977.39
2018-04-28T00:21:29.570Z,977.41
2018-04-28T00:22:39.577Z,977.42
2018-04-28T00:23:49.588Z,977.45
2018-04-28T00:24:59.597Z,977.41
2018-04-28T00:26:09.336Z,977.47
2018-04-28T00:27:19.077Z,977.45
2018-04-28T00:28:29.112Z,977.46
2018-04-28T00:29:39.111Z,977.46
2018-04-28T00:30:48.580Z,977.49
2018-04-28T00:31:58.583Z,977.46
2018-04-28T00:33:08.598Z,977.44
2018-04-28T00:34:18.072Z,977.45
2018-04-28T00:35:27.832Z,977.49
2018-04-28T00:36:37.841Z,977.44
2018-04-28T00:37:47.845Z,977.46
2018-04-28T00:38:57.584Z,977.46
2018-04-28T00:40:07.054Z,977.43
2018-04-28T00:41:16.791Z,977.45
2018-04-28T00:42:26.528Z,977.48
2018-04-28T00:43:36.000Z,977.45
2018-04-28T00:44:46.005Z,977.42
2018-04-28T00:45:55.741Z,977.43
2018-04-28T00:47:05.211Z,977.44
2018-04-28T00:48:15.018Z,977.43
2018-04-28T00:49:25.027Z,977.42
2018-04-28T00:50:34.776Z,977.44
2018-04-28T00:51:44.806Z,977.41
2018-04-28T00:52:54.853Z,977.44
2018-04-28T00:54:04.058Z,977.46
2018-04-28T00:55:13.800Z,977.43
2018-04-28T00:56:23.806Z,977.43
2018-04-28T00:57:33.817Z,977.45
2018-04-28T00:58:43.820Z,977.43
2018-04-28T00:59:53.824Z,977.45
2018-04-28T01:01:03.293Z,977.45
2018-04-28T01:02:13.299Z,977.43
2018-04-28T01:03:23.313Z,977.47
2018-04-28T01:04:32.788Z,977.43
2018-04-28T01:05:42.255Z,977.47
2018-04-28T01:06:52.004Z,977.46
2018-04-28T01:08:01.800Z,977.42
2018-04-28T01:09:11.284Z,977.47
2018-04-28T01:10:20.752Z,977.48
2018-04-28T01:11:30.493Z,977.49
2018-04-28T01:12:40.227Z,977.47
2018-04-28T01:13:50.240Z,977.46
2018-04-28T01:15:00.245Z,977.44
2018-04-28T01:16:09.711Z,977.44
2018-04-28T01:17:19.817Z,977.43
2018-04-28T01:18:29.818Z,977.4
2018-04-28T01:19:39.829Z,977.46
2018-04-28T01:20:49.296Z,977.44
2018-04-28T01:21:59.034Z,977.46
2018-04-28T01:23:09.033Z,977.45
2018-04-28T01:24:18.768Z,977.44
2018-04-28T01:25:28.581Z,977.46
2018-04-28T01:26:38.325Z,977.46
2018-04-28T01:27:48.058Z,977.48
2018-04-28T01:28:58.064Z,977.49
2018-04-28T01:30:07.806Z,977.5
2018-04-28T01:31:17.806Z,977.52
2018-04-28T01:32:27.542Z,977.54
2018-04-28T01:33:37.279Z,977.52
2018-04-28T01:34:47.015Z,977.5
2018-04-28T01:35:56.215Z,977.54
2018-04-28T01:37:06.242Z,977.46
2018-04-28T01:38:16.254Z,977.48
2018-04-28T01:39:25.990Z,977.5
2018-04-28T01:40:36.002Z,977.45
2018-04-28T01:41:46.016Z,977.46
2018-04-28T01:42:56.020Z,977.44
2018-04-28T01:44:05.759Z,977.42
2018-04-28T01:45:14.967Z,977.46
2018-04-28T01:46:24.979Z,977.43
2018-04-28T01:47:34.981Z,977.46
2018-04-28T01:48:44.193Z,977.44
2018-04-28T01:49:53.930Z,977.44
2018-04-28T01:51:03.669Z,977.47
2018-04-28T01:52:13.687Z,977.49
2018-04-28T01:53:23.169Z,977.47
2018-04-28T01:54:32.637Z,977.48
2018-04-28T01:55:42.643Z,977.44
2018-04-28T01:56:51.848Z,977.45
2018-04-28T01:58:01.587Z,977.43
2018-04-28T01:59:11.059Z,977.39
2018-04-28T02:00:21.076Z,977.4
2018-04-28T02:01:30.834Z,977.42
2018-04-28T02:02:40.573Z,977.44
2018-04-28T02:03:50.585Z,977.43
2018-04-28T02:05:00.587Z,977.48
2018-04-28T02:06:09.789Z,977.48
2018-04-28T02:07:19.805Z,977.47
2018-04-28T02:08:29.554Z,977.47
2018-04-28T02:09:39.296Z,977.48
2018-04-28T02:10:49.307Z,977.5
2018-04-28T02:11:58.777Z,977.52
2018-04-28T02:13:08.875Z,977.55
2018-04-28T02:14:18.879Z,977.58
2018-04-28T02:15:28.736Z,977.56
2018-04-28T02:16:38.472Z,977.61
2018-04-28T02:17:47.678Z,977.65
2018-04-28T02:18:57.146Z,977.67
2018-04-28T02:20:06.882Z,977.65
2018-04-28T02:21:16.673Z,977.67
2018-04-28T02:22:26.414Z,977.65
2018-04-28T02:23:35.892Z,977.63
2018-04-28T02:24:45.898Z,977.64
2018-04-28T02:25:55.101Z,977.63
2018-04-28T02:27:04.851Z,977.63
2018-04-28T02:28:14.880Z,977.63
2018-04-28T02:29:24.617Z,977.62
2018-04-28T02:30:33.822Z,977.6
2018-04-28T02:31:43.605Z,977.59
2018-04-28T02:32:53.357Z,977.53
2018-04-28T02:34:03.094Z,977.56
2018-04-28T02:35:12.642Z,977.53
2018-04-28T02:36:22.132Z,977.56
2018-04-28T02:37:31.874Z,977.57
2018-04-28T02:38:41.902Z,977.57
2018-04-28T02:39:51.379Z,977.56
2018-04-28T02:41:01.119Z,977.59
2018-04-28T02:42:10.593Z,977.55
2018-04-28T02:43:20.594Z,977.51
2018-04-28T02:44:30.743Z,977.53
2018-04-28T02:45:40.766Z,977.54
2018-04-28T02:46:50.248Z,977.56
2018-04-28T02:48:00.257Z,977.52
2018-04-28T02:49:10.277Z,977.54
2018-04-28T02:50:20.305Z,977.56
2018-04-28T02:51:30.331Z,977.52
2018-04-28T02:52:40.066Z,977.57
2018-04-28T02:53:50.079Z,977.55
2018-04-28T02:54:59.551Z,977.55
2018-04-28T02:56:09.576Z,977.51
2018-04-28T02:57:19.588Z,977.54
2018-04-28T02:58:28.788Z,977.5
2018-04-28T02:59:38.535Z,977.54
2018-04-28T03:03:23.959Z,977.58
2018-04-28T03:04:33.436Z,977.58
2018-04-28T03:05:43.287Z,977.61
2018-04-28T03:06:53.301Z,977.6
2018-04-28T03:08:03.035Z,977.59
2018-04-28T03:09:12.515Z,977.62
2018-04-28T03:10:22.535Z,977.6
2018-04-28T03:11:32.281Z,977.61
2018-04-28T03:12:42.285Z,977.59
2018-04-28T03:13:52.295Z,977.56
2018-04-28T03:15:02.030Z,977.65
2018-04-28T03:16:11.230Z,977.62
2018-04-28T03:17:20.980Z,977.64
2018-04-28T03:18:30.978Z,977.63
2018-04-28T03:19:40.453Z,977.64
2018-04-28T03:20:49.921Z,977.67
2018-04-28T03:21:59.391Z,977.67
2018-04-28T03:23:09.151Z,977.69
2018-04-28T03:24:18.421Z,977.67
2018-04-28T03:25:28.775Z,977.67
2018-04-28T03:26:38.244Z,977.67
2018-04-28T03:27:47.976Z,977.67
2018-04-28T03:28:57.975Z,977.75
2018-04-28T03:30:07.714Z,977.73
2018-04-28T03:31:17.468Z,977.72
2018-04-28T03:32:27.476Z,977.72
2018-04-28T03:33:37.216Z,977.74
2018-04-28T03:34:47.217Z,977.76
2018-04-28T03:35:57.229Z,977.77
2018-04-28T03:37:06.977Z,977.75
2018-04-28T03:38:16.458Z,977.76
2018-04-28T03:39:26.201Z,977.74
2018-04-28T03:40:36.204Z,977.74
2018-04-28T03:41:46.207Z,977.75
2018-04-28T03:42:56.207Z,977.82
2018-04-28T03:44:05.956Z,977.78
2018-04-28T03:45:15.955Z,977.77
2018-04-28T03:46:25.430Z,977.75
2018-04-28T03:47:35.436Z,977.78
2018-04-28T03:48:45.443Z,977.81
2018-04-28T03:49:55.199Z,977.79
2018-04-28T03:51:05.206Z,977.8
2018-04-28T03:52:15.218Z,977.78
2018-04-28T03:53:25.273Z,977.82
2018-04-28T03:54:35.614Z,977.8
2018-04-28T03:55:45.364Z,977.81
2018-04-28T03:56:55.373Z,977.83
2018-04-28T03:58:04.845Z,977.8
2018-04-28T03:59:14.322Z,977.83
2018-04-28T04:00:24.325Z,977.8
2018-04-28T04:01:34.056Z,977.83
2018-04-28T04:02:44.075Z,977.81
2018-04-28T04:03:54.080Z,977.83
2018-04-28T04:05:04.079Z,977.88
2018-04-28T04:06:13.822Z,977.85
2018-04-28T04:07:23.824Z,977.85
2018-04-28T04:08:33.824Z,977.84
2018-04-28T04:09:43.826Z,977.84
2018-04-28T04:10:53.913Z,977.84
2018-04-28T04:12:03.382Z,977.88
2018-04-28T04:13:12.950Z,977.92
2018-04-28T04:14:22.952Z,977.89
2018-04-28T04:15:32.692Z,977.93
2018-04-28T04:16:42.702Z,977.89
2018-04-28T04:17:52.438Z,977.92
2018-04-28T04:19:02.179Z,977.9
2018-04-28T04:20:11.660Z,977.94
2018-04-28T04:21:21.397Z,977.95
2018-04-28T04:22:31.130Z,977.93
2018-04-28T04:23:40.871Z,977.95
2018-04-28T04:24:50.605Z,977.94
2018-04-28T04:26:00.690Z,977.94
2018-04-28T04:27:10.159Z,977.95
2018-04-28T04:28:19.359Z,977.97
2018-04-28T04:29:29.097Z,977.98
2018-04-28T04:30:39.110Z,978.01
2018-04-28T04:31:48.849Z,977.99
2018-04-28T04:32:58.415Z,977.98
2018-04-28T04:34:08.153Z,977.97
2018-04-28T04:35:18.160Z,978
2018-04-28T04:36:27.630Z,977.99
2018-04-28T04:37:37.718Z,978.01
2018-04-28T04:38:47.607Z,978
2018-04-28T04:39:57.152Z,978.03
2018-04-28T04:41:07.158Z,978.05
2018-04-28T04:42:17.285Z,978.09
2018-04-28T04:43:27.289Z,978.1
2018-04-28T04:44:37.102Z,978.07
2018-04-28T04:45:47.112Z,978.07
2018-04-28T04:46:56.584Z,978.07
2018-04-28T04:48:06.331Z,978.11
2018-04-28T04:49:16.348Z,978.11
2018-04-28T04:50:26.089Z,978.12
2018-04-28T04:51:36.193Z,978.14
2018-04-28T04:52:45.929Z,978.14
2018-04-28T04:53:55.935Z,978.17
2018-04-28T04:55:05.937Z,978.14
2018-04-28T04:56:15.679Z,978.16
2018-04-28T04:57:25.455Z,978.14
2018-04-28T04:58:35.193Z,978.23
2018-04-28T04:59:45.200Z,978.22
2018-04-28T05:00:54.933Z,978.23
2018-04-28T05:02:04.680Z,978.25
2018-04-28T05:03:14.420Z,978.28
2018-04-28T05:04:24.159Z,978.32
2018-04-28T05:05:33.625Z,978.33
2018-04-28T05:06:43.360Z,978.37
2018-04-28T05:07:53.095Z,978.35
2018-04-28T05:09:03.103Z,978.35
2018-04-28T05:10:12.845Z,978.37
2018-04-28T05:11:22.954Z,978.38
2018-04-28T05:12:32.425Z,978.45
2018-04-28T05:13:41.904Z,978.41
2018-04-28T05:14:51.910Z,978.44
2018-04-28T05:16:01.650Z,978.43
2018-04-28T05:17:11.122Z,978.48
2018-04-28T05:18:21.220Z,978.49
2018-04-28T05:19:31.223Z,978.52
2018-04-28T05:20:41.227Z,978.52
2018-04-28T05:21:51.227Z,978.5
2018-04-28T05:23:01.230Z,978.54
2018-04-28T05:24:10.968Z,978.55
2018-04-28T05:25:20.973Z,978.56
2018-04-28T05:26:30.980Z,978.57
2018-04-28T05:27:40.721Z,978.54
2018-04-28T05:28:50.198Z,978.53
2018-04-28T05:30:00.209Z,978.58
2018-04-28T05:31:10.224Z,978.53
2018-04-28T05:32:20.231Z,978.6
2018-04-28T05:33:30.232Z,978.57
2018-04-28T05:34:40.238Z,978.59
2018-04-28T05:35:50.074Z,978.57
2018-04-28T05:37:00.265Z,978.61
2018-04-28T05:38:09.742Z,978.6
2018-04-28T05:39:19.483Z,978.62
2018-04-28T05:40:29.481Z,978.65
2018-04-28T05:41:39.227Z,978.64
2018-04-28T05:42:48.698Z,978.64
2018-04-28T05:43:58.699Z,978.66
2018-04-28T05:45:08.700Z,978.69
2018-04-28T05:46:19.000Z,978.73
2018-04-28T05:47:28.734Z,978.75
2018-04-28T05:48:38.746Z,978.75
2018-04-28T05:49:48.759Z,978.74
2018-04-28T05:50:58.759Z,978.72
2018-04-28T05:52:08.036Z,978.72
2018-04-28T05:53:18.053Z,978.74
2018-04-28T05:54:28.059Z,978.81
2018-04-28T05:55:38.066Z,978.82
2018-04-28T05:56:47.805Z,978.83
2018-04-28T05:57:57.273Z,978.86
2018-04-28T05:59:07.018Z,978.85
2018-04-28T06:00:17.020Z,978.86
2018-04-28T06:01:26.814Z,978.84
2018-04-28T06:02:36.814Z,978.87
2018-04-28T06:03:46.548Z,978.86
2018-04-28T06:04:56.562Z,978.92
2018-04-28T06:06:05.765Z,978.9
2018-04-28T06:07:15.776Z,978.92
2018-04-28T06:08:25.528Z,978.95
2018-04-28T06:09:35.534Z,978.93
2018-04-28T06:10:45.542Z,978.93
2018-04-28T06:11:55.550Z,978.97
2018-04-28T06:13:05.027Z,978.97
2018-04-28T06:14:14.260Z,979
2018-04-28T06:15:24.353Z,979.01
2018-04-28T06:16:33.830Z,979
2018-04-28T06:17:43.300Z,978.99
2018-04-28T06:18:53.302Z,979.01
2018-04-28T06:20:02.863Z,979.01
2018-04-28T06:21:12.721Z,979
2018-04-28T06:22:22.451Z,979.02
2018-04-28T06:23:32.454Z,979.05
2018-04-28T06:24:42.191Z,979.05
2018-04-28T06:25:51.932Z,979.09
2018-04-28T06:27:02.220Z,979.07
2018-04-28T06:28:11.967Z,979.08
2018-04-28T06:29:21.980Z,979.09
2018-04-28T06:30:31.718Z,979.1
2018-04-28T06:31:41.741Z,979.11
2018-04-28T06:32:51.209Z,979.13
2018-04-28T06:34:01.277Z,979.15
2018-04-28T06:35:11.288Z,979.18
2018-04-28T06:36:21.370Z,979.2
2018-04-28T06:37:31.371Z,979.19
2018-04-28T06:38:41.377Z,979.21
2018-04-28T06:39:51.389Z,979.22
2018-04-28T06:41:01.411Z,979.2
2018-04-28T06:42:11.327Z,979.22
2018-04-28T06:43:21.349Z,979.25
2018-04-28T06:44:31.138Z,979.26
2018-04-28T06:45:41.144Z,979.22
2018-04-28T06:46:50.879Z,979.32
2018-04-28T06:48:00.621Z,979.28
2018-04-28T06:49:10.362Z,979.3
2018-04-28T06:50:20.367Z,979.32
2018-04-28T06:51:30.104Z,979.33
2018-04-28T06:52:39.839Z,979.33
2018-04-28T06:53:49.850Z,979.35
2018-04-28T06:54:59.588Z,979.31
2018-04-28T06:56:09.335Z,979.31
2018-04-28T06:57:19.351Z,979.31
2018-04-28T06:58:29.398Z,979.34
2018-04-28T06:59:39.794Z,979.36
2018-04-28T07:00:49.343Z,979.36
2018-04-28T07:01:59.354Z,979.29
2018-04-28T07:03:09.373Z,979.31
2018-04-28T07:04:18.846Z,979.28
2018-04-28T07:05:28.899Z,979.31
2018-04-28T07:06:38.395Z,979.26
2018-04-28T07:07:48.405Z,979.28
2018-04-28T07:08:58.412Z,979.29
2018-04-28T07:10:07.883Z,979.32
2018-04-28T07:11:17.891Z,979.26
2018-04-28T07:12:27.371Z,979.3
2018-04-28T07:13:37.377Z,979.32
2018-04-28T07:14:47.124Z,979.28
2018-04-28T07:15:57.134Z,979.3
2018-04-28T07:17:06.874Z,979.33
2018-04-28T07:18:16.885Z,979.32
2018-04-28T07:19:26.726Z,979.33
2018-04-28T07:20:36.487Z,979.3
2018-04-28T07:21:46.232Z,979.34
2018-04-28T07:22:56.237Z,979.37
2018-04-28T07:24:05.976Z,979.36
2018-04-28T07:25:15.454Z,979.34
2018-04-28T07:26:25.195Z,979.34
2018-04-28T07:27:34.933Z,979.36
2018-04-28T07:28:44.138Z,979.34
2018-04-28T07:29:54.139Z,979.35
2018-04-28T07:31:03.877Z,979.38
2018-04-28T07:32:13.622Z,979.45
2018-04-28T07:33:23.359Z,979.37
2018-04-28T07:34:33.153Z,979.38
2018-04-28T07:35:43.174Z,979.36
2018-04-28T07:36:52.653Z,979.42
2018-04-28T07:38:02.126Z,979.41
2018-04-28T07:39:11.866Z,979.43
2018-04-28T07:40:21.873Z,979.37
2018-04-28T07:41:31.612Z,979.41
2018-04-28T07:42:41.615Z,979.41
2018-04-28T07:43:51.626Z,979.39
2018-04-28T07:45:01.099Z,979.42
2018-04-28T07:46:10.842Z,979.42
2018-04-28T07:47:20.850Z,979.4
2018-04-28T07:48:30.860Z,979.44
2018-04-28T07:49:40.875Z,979.48
2018-04-28T07:50:50.891Z,979.46
2018-04-28T07:52:00.903Z,979.48
2018-04-28T07:53:10.916Z,979.48
2018-04-28T07:54:20.653Z,979.5
2018-04-28T07:55:30.704Z,979.53
2018-04-28T07:56:39.966Z,979.51
2018-04-28T07:57:49.376Z,979.53
2018-04-28T07:58:59.383Z,979.52
2018-04-28T08:00:09.121Z,979.54
2018-04-28T08:01:19.081Z,979.56
2018-04-28T08:02:29.091Z,979.55
2018-04-28T08:03:38.832Z,979.63
2018-04-28T08:04:48.846Z,979.57
2018-04-28T08:05:58.859Z,979.58
2018-04-28T08:07:08.695Z,979.64
2018-04-28T08:08:18.786Z,979.55
2018-04-28T08:09:28.804Z,979.52
2018-04-28T08:10:38.814Z,979.53
2018-04-28T08:11:48.385Z,979.54
2018-04-28T08:12:58.403Z,979.59
2018-04-28T08:14:08.138Z,979.55
2018-04-28T08:15:17.690Z,979.55
2018-04-28T08:16:27.530Z,979.6
2018-04-28T08:17:37.273Z,979.61
2018-04-28T08:18:47.279Z,979.62
2018-04-28T08:19:57.294Z,979.61
2018-04-28T08:21:06.764Z,979.59
2018-04-28T08:22:16.498Z,979.6
2018-04-28T08:23:26.509Z,979.61
2018-04-28T08:24:36.254Z,979.59
2018-04-28T08:25:45.997Z,979.61
2018-04-28T08:26:55.739Z,979.61
2018-04-28T08:28:05.482Z,979.6
2018-04-28T08:29:15.222Z,979.63
2018-04-28T08:30:24.962Z,979.67
2018-04-28T08:31:34.969Z,979.67
2018-04-28T08:32:44.708Z,979.7
2018-04-28T08:33:54.722Z,979.74
2018-04-28T08:35:04.461Z,979.68
2018-04-28T08:36:13.932Z,979.73
2018-04-28T08:37:24.049Z,979.72
2018-04-28T08:38:33.875Z,979.71
2018-04-28T08:39:43.427Z,979.75
2018-04-28T08:40:53.171Z,979.76
2018-04-28T08:42:02.916Z,979.77
2018-04-28T08:43:12.655Z,979.74
2018-04-28T08:44:22.660Z,979.75
2018-04-28T08:45:32.515Z,979.77
2018-04-28T08:46:42.752Z,979.77
2018-04-28T08:47:52.763Z,979.77
2018-04-28T08:49:02.776Z,979.78
2018-04-28T08:50:12.513Z,979.8
2018-04-28T08:51:22.267Z,979.81
2018-04-28T08:52:32.275Z,979.82
2018-04-28T08:53:42.019Z,979.83
2018-04-28T08:54:52.030Z,979.8
2018-04-28T08:56:01.771Z,979.81
2018-04-28T08:57:11.241Z,979.8
2018-04-28T08:58:21.249Z,979.84
2018-04-28T08:59:30.992Z,979.85
2018-04-28T09:00:40.739Z,979.85
2018-04-28T09:01:50.747Z,979.87
2018-04-28T09:03:00.496Z,979.88
2018-04-28T09:04:10.245Z,979.83
2018-04-28T09:05:19.455Z,979.84
2018-04-28T09:06:29.465Z,979.83
2018-04-28T09:07:39.482Z,979.83
2018-04-28T09:08:49.496Z,979.82
2018-04-28T09:09:59.509Z,979.94
2018-04-28T09:11:09.527Z,979.87
2018-04-28T09:12:19.318Z,979.88
2018-04-28T09:13:29.064Z,979.85
2018-04-28T09:14:38.802Z,979.9
2018-04-28T09:15:48.814Z,979.89
2018-04-28T09:16:58.581Z,979.9
2018-04-28T09:18:08.110Z,979.9
2018-04-28T09:19:18.162Z,979.9
2018-04-28T09:20:27.191Z,979.92
2018-04-28T09:21:36.666Z,979.92
2018-04-28T09:22:45.877Z,979.93
2018-04-28T09:23:55.083Z,979.98
2018-04-28T09:25:04.829Z,979.92
2018-04-28T09:26:14.632Z,979.86
2018-04-28T09:27:24.278Z,979.87
2018-04-28T09:28:33.483Z,979.88
2018-04-28T09:29:42.964Z,979.9
2018-04-28T09:30:52.446Z,979.95
2018-04-28T09:32:02.193Z,979.92
2018-04-28T09:33:12.206Z,979.95
2018-04-28T09:34:21.944Z,979.93
2018-04-28T09:35:31.955Z,979.99
2018-04-28T09:36:41.698Z,980
2018-04-28T09:37:51.710Z,979.99
2018-04-28T09:39:01.450Z,979.97
2018-04-28T09:40:10.925Z,979.96
2018-04-28T09:41:20.930Z,979.97
2018-04-28T09:42:30.670Z,979.97
2018-04-28T09:43:40.412Z,980.01
2018-04-28T09:44:50.214Z,979.99
2018-04-28T09:46:00.243Z,980.02
2018-04-28T09:47:09.983Z,980.01
2018-04-28T09:48:19.992Z,980.03
2018-04-28T09:49:29.738Z,980.03
2018-04-28T09:50:39.741Z,980.04
2018-04-28T09:51:49.838Z,980.08
2018-04-28T09:52:59.935Z,980.16
2018-04-28T09:54:09.751Z,980.1
2018-04-28T09:55:19.763Z,980.11
2018-04-28T09:56:29.783Z,980.1
2018-04-28T09:57:39.790Z,980.09
2018-04-28T09:58:49.529Z,980.09
2018-04-28T09:59:59.411Z,980.05
2018-04-28T10:01:08.887Z,980.03
2018-04-28T10:02:17.879Z,980.06
2018-04-28T10:03:27.888Z,980.05
2018-04-28T10:04:37.629Z,980.04
2018-04-28T10:05:47.647Z,980.07
2018-04-28T10:06:57.719Z,980.12
2018-04-28T10:08:07.193Z,980.1
2018-04-28T10:09:17.206Z,980.09
2018-04-28T10:10:26.958Z,980.04
2018-04-28T10:11:36.978Z,980.05
2018-04-28T10:12:47.056Z,980.05
2018-04-28T10:13:57.219Z,980.03
2018-04-28T10:15:06.158Z,980.05
2018-04-28T10:16:16.168Z,979.96
2018-04-28T10:17:26.175Z,979.97
2018-04-28T10:18:35.921Z,979.93
2018-04-28T10:19:45.768Z,979.94
2018-04-28T10:20:55.515Z,979.95
2018-04-28T10:22:05.263Z,979.93
2018-04-28T10:23:15.002Z,979.92
2018-04-28T10:24:25.034Z,979.92
2018-04-28T10:25:34.847Z,979.93
2018-04-28T10:26:44.590Z,979.97
2018-04-28T10:27:54.600Z,979.97
2018-04-28T10:29:04.616Z,979.94
2018-04-28T10:30:14.639Z,979.95
2018-04-28T10:31:24.646Z,980
2018-04-28T10:32:34.389Z,980
2018-04-28T10:33:43.871Z,980
2018-04-28T10:34:53.619Z,979.95
2018-04-28T10:36:03.102Z,979.95
2018-04-28T10:37:12.577Z,980
2018-04-28T10:38:22.370Z,979.95
2018-04-28T10:39:32.110Z,979.93
2018-04-28T10:40:41.860Z,979.93
2018-04-28T10:41:51.339Z,979.9
2018-04-28T10:43:00.809Z,979.92
2018-04-28T10:44:10.546Z,979.96
2018-04-28T10:45:20.559Z,979.95
2018-04-28T10:46:30.302Z,980
2018-04-28T10:47:40.042Z,979.95
2018-04-28T10:48:50.106Z,979.94
2018-04-28T10:50:00.113Z,979.91
2018-04-28T10:51:10.134Z,979.92
2018-04-28T10:52:19.894Z,979.91
2018-04-28T10:53:29.635Z,979.89
2018-04-28T10:54:40.085Z,979.89
2018-04-28T10:55:49.563Z,979.89
2018-04-28T10:56:59.582Z,979.86
2018-04-28T10:58:09.604Z,979.86
2018-04-28T10:59:19.406Z,979.89
2018-04-28T11:00:29.150Z,979.87
2018-04-28T11:01:38.897Z,979.88
2018-04-28T11:02:48.924Z,979.88
2018-04-28T11:03:58.702Z,979.87
2018-04-28T11:05:08.716Z,979.89
2018-04-28T11:06:18.755Z,979.95
2018-04-28T11:07:28.987Z,979.89
2018-04-28T11:08:38.724Z,979.9
2018-04-28T11:09:48.746Z,979.9
2018-04-28T11:10:58.759Z,979.86
2018-04-28T11:12:08.504Z,979.9
2018-04-28T11:13:18.068Z,979.93
2018-04-28T11:14:27.644Z,979.91
2018-04-28T11:15:37.122Z,979.92
2018-04-28T11:16:47.138Z,979.9
2018-04-28T11:17:57.153Z,979.9
2018-04-28T11:19:06.640Z,979.89
2018-04-28T11:20:16.436Z,979.88
2018-04-28T11:21:26.179Z,979.87
2018-04-28T11:22:35.924Z,979.9
2018-04-28T11:23:46.039Z,979.85
2018-04-28T11:24:55.591Z,979.93
2018-04-28T11:26:05.607Z,979.87
2018-04-28T11:27:15.620Z,979.86
2018-04-28T11:28:24.827Z,979.86
2018-04-28T11:29:34.574Z,979.88
2018-04-28T11:30:44.582Z,979.88
2018-04-28T11:31:54.595Z,979.87
2018-04-28T11:33:04.334Z,979.83
2018-04-28T11:34:13.813Z,979.86
2018-04-28T11:35:23.289Z,979.88
2018-04-28T11:36:33.033Z,979.89
2018-04-28T11:37:43.041Z,979.86
2018-04-28T11:38:52.796Z,979.88
2018-04-28T11:40:02.816Z,979.87
2018-04-28T11:41:12.560Z,979.85
2018-04-28T11:42:22.034Z,979.89
2018-04-28T11:43:32.044Z,979.89
2018-04-28T11:44:41.268Z,979.83
2018-04-28T11:45:50.744Z,979.83
2018-04-28T11:47:00.785Z,979.86
2018-04-28T11:48:09.998Z,979.86
2018-04-28T11:49:20.020Z,979.84
2018-04-28T11:50:30.035Z,979.83
2018-04-28T11:51:39.785Z,979.8
2018-04-28T11:52:49.798Z,979.85
2018-04-28T11:53:59.539Z,979.82
2018-04-28T11:55:09.286Z,979.83
2018-04-28T11:56:19.031Z,979.79
2018-04-28T11:57:29.069Z,979.76
2018-04-28T11:58:38.813Z,979.72
2018-04-28T11:59:48.901Z,979.7
2018-04-28T12:00:58.647Z,979.71
2018-04-28T12:02:08.395Z,979.74
2018-04-28T12:03:18.408Z,979.73
2018-04-28T12:04:28.155Z,979.79
2018-04-28T12:05:37.363Z,979.77
2018-04-28T12:06:47.392Z,979.77
2018-04-28T12:07:56.867Z,979.78
2018-04-28T12:09:06.342Z,979.81
2018-04-28T12:10:16.350Z,979.76
2018-04-28T12:11:26.093Z,979.81
2018-04-28T12:12:35.891Z,979.85
2018-04-28T12:13:45.893Z,979.87
2018-04-28T12:14:55.994Z,979.88
2018-04-28T12:16:06.021Z,979.83
2018-04-28T12:17:16.039Z,979.83
2018-04-28T12:18:26.051Z,979.82
2018-04-28T12:19:35.799Z,979.84
2018-04-28T12:20:45.815Z,979.88
2018-04-28T12:21:55.648Z,979.89
2018-04-28T12:23:05.134Z,979.89
2018-04-28T12:24:14.883Z,979.92
2018-04-28T12:25:24.376Z,979.88
2018-04-28T12:26:34.393Z,979.89
2018-04-28T12:27:44.753Z,979.91
2018-04-28T12:28:54.522Z,979.8
2018-04-28T12:30:04.095Z,979.75
2018-04-28T12:31:13.582Z,979.79
2018-04-28T12:32:23.333Z,979.81
2018-04-28T12:33:32.814Z,979.78
2018-04-28T12:34:42.834Z,979.78
2018-04-28T12:35:52.908Z,979.73
2018-04-28T12:37:02.924Z,979.72
2018-04-28T12:38:13.098Z,979.72
2018-04-28T12:39:23.109Z,979.72
2018-04-28T12:40:33.162Z,979.67
2018-04-28T12:41:43.186Z,979.69
2018-04-28T12:42:52.970Z,979.65
2018-04-28T12:44:02.459Z,979.64
2018-04-28T12:45:12.471Z,979.7
2018-04-28T12:46:22.481Z,979.65
2018-04-28T12:47:31.431Z,979.62
2018-04-28T12:48:41.449Z,979.65
2018-04-28T12:49:51.194Z,979.7
2018-04-28T12:51:00.944Z,979.63
2018-04-28T12:52:10.692Z,979.62
2018-04-28T12:53:20.713Z,979.66
2018-04-28T12:54:30.460Z,979.55
2018-04-28T12:55:40.211Z,979.61
2018-04-28T12:56:50.007Z,979.56
2018-04-28T12:58:00.044Z,979.57
2018-04-28T12:59:10.058Z,979.55
2018-04-28T13:00:20.073Z,979.53
2018-04-28T13:01:29.819Z,979.5
2018-04-28T13:02:39.838Z,979.46
2018-04-28T13:03:49.320Z,979.45
2018-04-28T13:04:59.334Z,979.44
2018-04-28T13:06:09.446Z,979.46
2018-04-28T13:07:19.713Z,979.53
2018-04-28T13:08:29.463Z,979.55
2018-04-28T13:09:39.471Z,979.52
2018-04-28T13:10:49.488Z,979.54
2018-04-28T13:11:58.981Z,979.6
2018-04-28T13:13:08.739Z,979.54
2018-04-28T13:14:18.593Z,979.55
2018-04-28T13:15:28.611Z,979.55
2018-04-28T13:16:38.631Z,979.68
2018-04-28T13:17:48.656Z,979.58
2018-04-28T13:18:58.673Z,979.65
2018-04-28T13:20:08.695Z,979.73
2018-04-28T13:21:18.444Z,979.63
2018-04-28T13:22:28.201Z,979.45
2018-04-28T13:23:38.249Z,979.44
2018-04-28T13:24:48.261Z,979.49
2018-04-28T13:25:58.006Z,979.47
2018-04-28T13:27:08.033Z,979.47
2018-04-28T13:28:17.779Z,979.43
2018-04-28T13:29:26.731Z,979.44
2018-04-28T13:30:36.220Z,979.4
2018-04-28T13:31:46.227Z,979.42
2018-04-28T13:32:55.976Z,979.39
2018-04-28T13:34:05.725Z,979.52
2018-04-28T13:35:15.213Z,979.48
2018-04-28T13:36:24.962Z,979.46
2018-04-28T13:37:34.977Z,979.53
2018-04-28T13:38:44.462Z,979.54
2018-04-28T13:39:54.214Z,979.53
2018-04-28T13:41:03.994Z,979.55
2018-04-28T13:42:13.986Z,979.57
2018-04-28T13:43:23.467Z,979.63
2018-04-28T13:44:33.222Z,979.72
2018-04-28T13:45:43.231Z,979.69
2018-04-28T13:46:53.243Z,979.71
2018-04-28T13:48:02.989Z,979.63
2018-04-28T13:49:13.181Z,979.77
2018-04-28T13:50:22.935Z,979.81
2018-04-28T13:51:32.421Z,979.96
2018-04-28T13:52:42.168Z,979.86
2018-04-28T13:53:51.917Z,979.85
2018-04-28T13:55:01.933Z,979.81
2018-04-28T13:56:11.148Z,979.85
2018-04-28T13:57:21.169Z,979.8
2018-04-28T13:58:30.917Z,979.74
2018-04-28T13:59:40.930Z,979.76
2018-04-28T14:00:50.951Z,979.78
2018-04-28T14:02:00.968Z,979.82
2018-04-28T14:03:10.183Z,979.92
2018-04-28T14:04:20.203Z,979.95
2018-04-28T14:05:29.954Z,980
2018-04-28T14:06:39.706Z,979.95
2018-04-28T14:07:49.457Z,979.79
2018-04-28T14:08:59.486Z,979.82
2018-04-28T14:10:09.239Z,979.74
2018-04-28T14:11:18.994Z,979.7
2018-04-28T14:12:29.004Z,979.72
2018-04-28T14:13:38.756Z,979.7
2018-04-28T14:14:48.766Z,979.66
2018-04-28T14:15:58.248Z,979.75
2018-04-28T14:17:07.465Z,979.72
2018-04-28T14:18:17.224Z,979.73
2018-04-28T14:19:27.258Z,979.8
2018-04-28T14:20:37.274Z,979.83
2018-04-28T14:21:47.294Z,979.76
2018-04-28T14:22:56.780Z,979.82
2018-04-28T14:24:06.632Z,980.08
2018-04-28T14:25:16.382Z,980.37
2018-04-28T14:26:26.134Z,980.46
2018-04-28T14:27:35.929Z,980.33
2018-04-28T14:28:45.141Z,980.36
2018-04-28T14:29:54.887Z,980.35
2018-04-28T14:31:04.631Z,979.66
2018-04-28T14:32:14.376Z,979.67
2018-04-28T14:33:23.587Z,980.61
2018-04-28T14:34:33.615Z,980.77
2018-04-28T14:35:43.639Z,980.92
2018-04-28T14:36:53.394Z,980.85